< < Back
Terminal Aerodrome Forecast


Current Version              Previous Versions:   1  2  3  4  5  6  7  8  9  

Terminal Aerodrome Forecast

220
FTUS44 KMOB 290520
TAFPNS
TAF
KPNS 290520Z 2906/3006 24006KT P6SM SKC
     FM291500 33006KT P6SM FEW250
     FM291800 34006KT P6SM VCTS SCT030CB
     FM300000 29005KT P6SM SCT050=

Latest METAR

629
SAUS70 KWBC 291100 RRB
MTRPNS
METAR KPNS 291053Z 30007KT 10SM CLR 27/23 A2997 RMK AO2 SLP149
T02670228


USA.gov is the U.S. government's official web portal to all federal, state and local government web resources and services.